Moenville, South Dakota
Current Conditions -  °F | °C
As of 2:55 AM on Tuesday 21 Oct 2014 (Local Time) from KPHP Reporting Station
Clear Clear  
Wind Chill: 50°   Ceiling: Unl
Heat Index: 50°   Visibility: 10mi
Dew Point: 39°   Wind: 3mph
Humidity: 66%   Direction: 90°E
Pressure: 29.86"   Gusts: NA
Location:  44.3169°N, 101.368°W
Report Text: KPHP 210855Z AUTO 09003KT 10SM CLR 10/04 A2986 RMK AO2 SLP097 T01000039 58005
Loading
Personal Weather Stations






























Interactive Weather Map
Tropical Storm Tracking
New forecast layout! Learn more

10-Day Weather Forecast

Advertisements
Track Severe Weather on mobile